sensor_id;sensor_type;location;lat;lon;timestamp;pressure;altitude;pressure_sealevel;temperature;humidity
10176;BME280;18221;38.704;0.152;2023-11-21T00:01:52;98937.81;;;18.74;49.55
10176;BME280;18221;38.704;0.152;2023-11-21T00:04:19;98931.88;;;18.78;49.42
10176;BME280;18221;38.704;0.152;2023-11-21T00:06:47;98937.50;;;18.83;49.53
10176;BME280;18221;38.704;0.152;2023-11-21T00:09:15;98934.22;;;18.88;49.18
10176;BME280;18221;38.704;0.152;2023-11-21T00:11:44;98935.72;;;18.69;49.32
10176;BME280;18221;38.704;0.152;2023-11-21T00:14:12;98931.94;;;18.64;49.52
10176;BME280;18221;38.704;0.152;2023-11-21T00:16:41;98926.75;;;18.62;49.79
10176;BME280;18221;38.704;0.152;2023-11-21T00:19:12;98928.16;;;18.58;49.93
10176;BME280;18221;38.704;0.152;2023-11-21T00:21:40;98922.72;;;18.52;50.24
10176;BME280;18221;38.704;0.152;2023-11-21T00:24:10;98932.47;;;18.53;50.47
10176;BME280;18221;38.704;0.152;2023-11-21T00:26:40;98932.06;;;18.56;50.52
10176;BME280;18221;38.704;0.152;2023-11-21T00:29:08;98931.75;;;18.65;50.55
10176;BME280;18221;38.704;0.152;2023-11-21T00:31:37;98929.50;;;18.69;50.52
10176;BME280;18221;38.704;0.152;2023-11-21T00:34:07;98936.88;;;18.81;50.53
10176;BME280;18221;38.704;0.152;2023-11-21T00:36:36;98924.88;;;18.84;50.31
10176;BME280;18221;38.704;0.152;2023-11-21T00:39:04;98925.75;;;18.91;49.99
10176;BME280;18221;38.704;0.152;2023-11-21T00:41:33;98921.22;;;18.70;50.27
10176;BME280;18221;38.704;0.152;2023-11-21T00:44:03;98919.63;;;18.55;50.42
10176;BME280;18221;38.704;0.152;2023-11-21T00:46:31;98923.13;;;18.34;51.23
10176;BME280;18221;38.704;0.152;2023-11-21T00:48:59;98918.50;;;18.28;51.65
10176;BME280;18221;38.704;0.152;2023-11-21T00:51:27;98918.13;;;18.31;51.87
10176;BME280;18221;38.704;0.152;2023-11-21T00:53:56;98929.09;;;18.29;52.13
10176;BME280;18221;38.704;0.152;2023-11-21T00:56:24;98918.91;;;18.46;52.15
10176;BME280;18221;38.704;0.152;2023-11-21T00:58:52;98916.78;;;18.56;51.93
10176;BME280;18221;38.704;0.152;2023-11-21T01:01:21;98920.78;;;18.45;51.94
10176;BME280;18221;38.704;0.152;2023-11-21T01:03:51;98923.38;;;18.54;51.90
10176;BME280;18221;38.704;0.152;2023-11-21T01:06:19;98911.81;;;18.60;51.69
10176;BME280;18221;38.704;0.152;2023-11-21T01:08:47;98898.50;;;18.73;51.43
10176;BME280;18221;38.704;0.152;2023-11-21T01:11:16;98891.31;;;18.80;51.05
10176;BME280;18221;38.704;0.152;2023-11-21T01:13:44;98881.19;;;18.82;50.66
10176;BME280;18221;38.704;0.152;2023-11-21T01:16:12;98878.13;;;18.85;50.58
10176;BME280;18221;38.704;0.152;2023-11-21T01:18:40;98893.03;;;18.87;50.10
10176;BME280;18221;38.704;0.152;2023-11-21T01:21:08;98893.84;;;18.88;49.90
10176;BME280;18221;38.704;0.152;2023-11-21T01:23:36;98891.63;;;18.91;49.65
10176;BME280;18221;38.704;0.152;2023-11-21T01:26:04;98896.41;;;18.96;49.61
10176;BME280;18221;38.704;0.152;2023-11-21T01:28:37;98903.22;;;18.92;49.58
10176;BME280;18221;38.704;0.152;2023-11-21T01:31:05;98891.16;;;18.88;49.81
10176;BME280;18221;38.704;0.152;2023-11-21T01:33:33;98894.41;;;18.77;50.10
10176;BME280;18221;38.704;0.152;2023-11-21T01:36:01;98902.41;;;18.70;50.14
10176;BME280;18221;38.704;0.152;2023-11-21T01:38:29;98902.78;;;18.67;50.31
10176;BME280;18221;38.704;0.152;2023-11-21T01:40:58;98900.34;;;18.51;50.61
10176;BME280;18221;38.704;0.152;2023-11-21T01:43:27;98902.50;;;18.56;50.71
10176;BME280;18221;38.704;0.152;2023-11-21T01:45:58;98901.06;;;18.60;50.65
10176;BME280;18221;38.704;0.152;2023-11-21T01:48:27;98900.94;;;18.68;50.49
10176;BME280;18221;38.704;0.152;2023-11-21T01:50:56;98914.38;;;18.68;50.42
10176;BME280;18221;38.704;0.152;2023-11-21T01:53:25;98917.41;;;18.79;50.33
10176;BME280;18221;38.704;0.152;2023-11-21T01:55:56;98914.84;;;18.71;50.13
10176;BME280;18221;38.704;0.152;2023-11-21T01:58:24;98917.66;;;18.63;50.16
10176;BME280;18221;38.704;0.152;2023-11-21T02:00:52;98905.34;;;18.54;50.35
10176;BME280;18221;38.704;0.152;2023-11-21T02:03:22;98900.34;;;18.51;50.35
10176;BME280;18221;38.704;0.152;2023-11-21T02:05:50;98900.56;;;18.49;50.68
10176;BME280;18221;38.704;0.152;2023-11-21T02:08:19;98890.69;;;18.57;50.44
10176;BME280;18221;38.704;0.152;2023-11-21T02:10:47;98894.72;;;18.67;50.24
10176;BME280;18221;38.704;0.152;2023-11-21T02:13:15;98895.09;;;18.64;50.01
10176;BME280;18221;38.704;0.152;2023-11-21T02:15:43;98905.09;;;18.70;49.49
10176;BME280;18221;38.704;0.152;2023-11-21T02:18:12;98894.97;;;18.72;48.95
10176;BME280;18221;38.704;0.152;2023-11-21T02:20:43;98898.94;;;18.76;48.86
10176;BME280;18221;38.704;0.152;2023-11-21T02:23:12;98890.66;;;18.78;48.28
10176;BME280;18221;38.704;0.152;2023-11-21T02:25:41;98887.94;;;18.71;48.06
10176;BME280;18221;38.704;0.152;2023-11-21T02:28:09;98890.81;;;18.70;47.73
10176;BME280;18221;38.704;0.152;2023-11-21T02:30:39;98891.97;;;18.82;46.96
10176;BME280;18221;38.704;0.152;2023-11-21T02:33:07;98890.16;;;18.89;46.65
10176;BME280;18221;38.704;0.152;2023-11-21T02:35:35;98873.84;;;18.97;46.37
10176;BME280;18221;38.704;0.152;2023-11-21T02:38:02;98885.91;;;18.80;45.96
10176;BME280;18221;38.704;0.152;2023-11-21T02:40:32;98883.09;;;18.88;45.41
10176;BME280;18221;38.704;0.152;2023-11-21T02:43:00;98878.25;;;18.77;45.33
10176;BME280;18221;38.704;0.152;2023-11-21T02:45:28;98871.91;;;18.84;44.96
10176;BME280;18221;38.704;0.152;2023-11-21T02:47:57;98871.31;;;18.89;44.73
10176;BME280;18221;38.704;0.152;2023-11-21T02:50:25;98873.63;;;18.92;44.54
10176;BME280;18221;38.704;0.152;2023-11-21T02:52:53;98869.94;;;18.99;44.29
10176;BME280;18221;38.704;0.152;2023-11-21T02:55:23;98868.94;;;19.00;44.17
10176;BME280;18221;38.704;0.152;2023-11-21T02:57:54;98874.97;;;19.09;44.08
10176;BME280;18221;38.704;0.152;2023-11-21T03:00:23;98882.34;;;19.28;43.77
10176;BME280;18221;38.704;0.152;2023-11-21T03:02:51;98872.75;;;19.47;43.34
10176;BME280;18221;38.704;0.152;2023-11-21T03:05:20;98879.84;;;19.54;43.08
10176;BME280;18221;38.704;0.152;2023-11-21T03:07:48;98877.75;;;19.56;43.01
10176;BME280;18221;38.704;0.152;2023-11-21T03:10:16;98877.31;;;19.53;43.06
10176;BME280;18221;38.704;0.152;2023-11-21T03:12:43;98884.59;;;19.52;43.18
10176;BME280;18221;38.704;0.152;2023-11-21T03:15:13;98878.88;;;19.34;43.47
10176;BME280;18221;38.704;0.152;2023-11-21T03:17:41;98883.66;;;19.11;43.78
10176;BME280;18221;38.704;0.152;2023-11-21T03:20:10;98893.72;;;18.96;44.05
10176;BME280;18221;38.704;0.152;2023-11-21T03:22:40;98893.19;;;19.07;44.02
10176;BME280;18221;38.704;0.152;2023-11-21T03:25:08;98891.50;;;19.06;44.08
10176;BME280;18221;38.704;0.152;2023-11-21T03:27:38;98889.72;;;19.13;44.16
10176;BME280;18221;38.704;0.152;2023-11-21T03:30:10;98888.66;;;19.14;44.13
10176;BME280;18221;38.704;0.152;2023-11-21T03:32:40;98893.50;;;19.25;44.16
10176;BME280;18221;38.704;0.152;2023-11-21T03:35:08;98903.19;;;19.20;44.34
10176;BME280;18221;38.704;0.152;2023-11-21T03:37:36;98910.19;;;19.14;44.54
10176;BME280;18221;38.704;0.152;2023-11-21T03:40:06;98897.63;;;19.21;44.41
10176;BME280;18221;38.704;0.152;2023-11-21T03:42:40;98912.47;;;19.10;44.46
10176;BME280;18221;38.704;0.152;2023-11-21T03:45:09;98909.09;;;19.02;44.79
10176;BME280;18221;38.704;0.152;2023-11-21T03:47:41;98916.22;;;18.88;45.21
10176;BME280;18221;38.704;0.152;2023-11-21T03:50:09;98920.78;;;18.67;45.81
10176;BME280;18221;38.704;0.152;2023-11-21T03:52:38;98919.38;;;18.71;45.33
10176;BME280;18221;38.704;0.152;2023-11-21T03:55:06;98922.31;;;18.76;45.81
10176;BME280;18221;38.704;0.152;2023-11-21T03:57:34;98919.34;;;18.92;45.31
10176;BME280;18221;38.704;0.152;2023-11-21T04:00:03;98916.94;;;18.76;45.48
10176;BME280;18221;38.704;0.152;2023-11-21T04:02:34;98911.91;;;18.94;45.08
10176;BME280;18221;38.704;0.152;2023-11-21T04:05:04;98908.75;;;18.84;45.28
10176;BME280;18221;38.704;0.152;2023-11-21T04:07:33;98914.47;;;18.74;45.61
10176;BME280;18221;38.704;0.152;2023-11-21T04:10:02;98918.03;;;18.60;45.92
10176;BME280;18221;38.704;0.152;2023-11-21T04:12:30;98913.88;;;18.58;46.19
10176;BME280;18221;38.704;0.152;2023-11-21T04:14:58;98921.69;;;18.53;46.14
10176;BME280;18221;38.704;0.152;2023-11-21T04:17:25;98917.72;;;18.70;45.83
10176;BME280;18221;38.704;0.152;2023-11-21T04:19:54;98910.53;;;18.77;45.65
10176;BME280;18221;38.704;0.152;2023-11-21T04:22:23;98913.00;;;18.72;45.54
10176;BME280;18221;38.704;0.152;2023-11-21T04:24:51;98909.25;;;18.52;46.02
10176;BME280;18221;38.704;0.152;2023-11-21T04:27:19;98912.00;;;18.37;46.14
10176;BME280;18221;38.704;0.152;2023-11-21T04:29:47;98912.84;;;18.37;45.96
10176;BME280;18221;38.704;0.152;2023-11-21T04:32:15;98911.31;;;18.49;45.48
10176;BME280;18221;38.704;0.152;2023-11-21T04:34:43;98916.56;;;18.58;45.48
10176;BME280;18221;38.704;0.152;2023-11-21T04:37:11;98920.97;;;18.65;45.06
10176;BME280;18221;38.704;0.152;2023-11-21T04:39:40;98924.75;;;18.71;45.10
10176;BME280;18221;38.704;0.152;2023-11-21T04:42:09;98920.53;;;18.62;44.91
10176;BME280;18221;38.704;0.152;2023-11-21T04:44:36;98928.09;;;18.73;44.69
10176;BME280;18221;38.704;0.152;2023-11-21T04:47:07;98922.13;;;18.77;44.29
10176;BME280;18221;38.704;0.152;2023-11-21T04:49:35;98915.25;;;18.75;44.32
10176;BME280;18221;38.704;0.152;2023-11-21T04:52:03;98924.34;;;18.95;43.89
10176;BME280;18221;38.704;0.152;2023-11-21T04:54:31;98919.84;;;19.02;43.59
10176;BME280;18221;38.704;0.152;2023-11-21T04:57:00;98924.09;;;18.90;43.70
10176;BME280;18221;38.704;0.152;2023-11-21T04:59:28;98921.31;;;19.04;43.21
10176;BME280;18221;38.704;0.152;2023-11-21T05:01:56;98930.75;;;18.94;43.30
10176;BME280;18221;38.704;0.152;2023-11-21T05:04:26;98932.06;;;18.77;43.44
10176;BME280;18221;38.704;0.152;2023-11-21T05:06:54;98937.94;;;18.87;42.93
10176;BME280;18221;38.704;0.152;2023-11-21T05:09:23;98939.88;;;18.72;43.02
10176;BME280;18221;38.704;0.152;2023-11-21T05:11:51;98940.63;;;18.44;43.62
10176;BME280;18221;38.704;0.152;2023-11-21T05:14:23;98941.75;;;18.71;43.29
10176;BME280;18221;38.704;0.152;2023-11-21T05:16:51;98936.41;;;18.78;42.97
10176;BME280;18221;38.704;0.152;2023-11-21T05:19:19;98942.03;;;18.62;43.71
10176;BME280;18221;38.704;0.152;2023-11-21T05:21:48;98937.88;;;18.59;43.77
10176;BME280;18221;38.704;0.152;2023-11-21T05:24:16;98941.25;;;18.61;43.81
10176;BME280;18221;38.704;0.152;2023-11-21T05:26:44;98937.56;;;18.69;43.66
10176;BME280;18221;38.704;0.152;2023-11-21T05:29:11;98944.97;;;18.67;43.58
10176;BME280;18221;38.704;0.152;2023-11-21T05:31:41;98941.28;;;18.68;43.40
10176;BME280;18221;38.704;0.152;2023-11-21T05:34:09;98944.72;;;18.62;43.70
10176;BME280;18221;38.704;0.152;2023-11-21T05:36:37;98951.53;;;18.58;43.94
10176;BME280;18221;38.704;0.152;2023-11-21T05:39:05;98952.66;;;18.48;44.14
10176;BME280;18221;38.704;0.152;2023-11-21T05:41:33;98948.41;;;18.39;43.93
10176;BME280;18221;38.704;0.152;2023-11-21T05:44:01;98957.88;;;18.35;44.02
10176;BME280;18221;38.704;0.152;2023-11-21T05:46:29;98954.63;;;18.40;43.55
10176;BME280;18221;38.704;0.152;2023-11-21T05:48:58;98957.69;;;18.37;43.63
10176;BME280;18221;38.704;0.152;2023-11-21T05:51:26;98955.75;;;18.31;43.80
10176;BME280;18221;38.704;0.152;2023-11-21T05:53:54;98960.25;;;18.24;43.89
10176;BME280;18221;38.704;0.152;2023-11-21T05:56:22;98953.03;;;18.10;44.11
10176;BME280;18221;38.704;0.152;2023-11-21T05:58:50;98956.19;;;18.13;44.31
10176;BME280;18221;38.704;0.152;2023-11-21T06:01:18;98956.56;;;18.10;44.44
10176;BME280;18221;38.704;0.152;2023-11-21T06:03:46;98956.13;;;18.28;44.21
10176;BME280;18221;38.704;0.152;2023-11-21T06:06:16;98957.44;;;18.32;44.12
10176;BME280;18221;38.704;0.152;2023-11-21T06:08:45;98954.88;;;18.24;44.54
10176;BME280;18221;38.704;0.152;2023-11-21T06:11:13;98964.19;;;18.28;44.30
10176;BME280;18221;38.704;0.152;2023-11-21T06:13:43;98963.44;;;18.34;44.18
10176;BME280;18221;38.704;0.152;2023-11-21T06:16:10;98970.69;;;18.33;44.33
10176;BME280;18221;38.704;0.152;2023-11-21T06:18:42;98958.59;;;18.44;44.26
10176;BME280;18221;38.704;0.152;2023-11-21T06:21:11;98960.38;;;18.37;44.44
10176;BME280;18221;38.704;0.152;2023-11-21T06:23:41;98964.19;;;18.42;44.26
10176;BME280;18221;38.704;0.152;2023-11-21T06:26:09;98963.38;;;18.63;44.24
10176;BME280;18221;38.704;0.152;2023-11-21T06:28:37;98961.53;;;18.64;44.14
10176;BME280;18221;38.704;0.152;2023-11-21T06:31:05;98965.72;;;18.52;44.51
10176;BME280;18221;38.704;0.152;2023-11-21T06:33:33;98972.34;;;18.70;44.26
10176;BME280;18221;38.704;0.152;2023-11-21T06:36:01;98973.88;;;18.58;44.43
10176;BME280;18221;38.704;0.152;2023-11-21T06:38:29;98968.75;;;18.63;44.49
10176;BME280;18221;38.704;0.152;2023-11-21T06:40:59;98964.34;;;18.56;44.75
10176;BME280;18221;38.704;0.152;2023-11-21T06:43:28;98978.47;;;18.64;44.70
10176;BME280;18221;38.704;0.152;2023-11-21T06:45:57;98976.69;;;18.50;44.89
10176;BME280;18221;38.704;0.152;2023-11-21T06:48:25;98972.84;;;18.80;44.35
10176;BME280;18221;38.704;0.152;2023-11-21T06:50:53;98977.25;;;18.88;44.16
10176;BME280;18221;38.704;0.152;2023-11-21T06:53:21;98980.88;;;18.95;43.83
10176;BME280;18221;38.704;0.152;2023-11-21T06:55:49;98975.13;;;19.04;43.84
10176;BME280;18221;38.704;0.152;2023-11-21T06:58:18;98981.41;;;18.90;44.46
10176;BME280;18221;38.704;0.152;2023-11-21T07:00:46;98973.69;;;18.81;44.66
10176;BME280;18221;38.704;0.152;2023-11-21T07:03:16;98964.97;;;18.79;44.84
10176;BME280;18221;38.704;0.152;2023-11-21T07:05:45;98959.97;;;18.76;45.01
10176;BME280;18221;38.704;0.152;2023-11-21T07:08:16;98958.50;;;18.94;44.62
10176;BME280;18221;38.704;0.152;2023-11-21T07:10:44;98962.41;;;18.92;44.63
10176;BME280;18221;38.704;0.152;2023-11-21T07:13:11;98952.41;;;18.86;44.66
10176;BME280;18221;38.704;0.152;2023-11-21T07:15:41;98948.84;;;18.79;44.87
10176;BME280;18221;38.704;0.152;2023-11-21T07:18:09;98953.72;;;18.90;44.85
10176;BME280;18221;38.704;0.152;2023-11-21T07:20:37;98951.56;;;18.85;45.04
10176;BME280;18221;38.704;0.152;2023-11-21T07:23:05;98944.34;;;18.86;44.75
10176;BME280;18221;38.704;0.152;2023-11-21T07:25:33;98951.41;;;18.87;44.60
10176;BME280;18221;38.704;0.152;2023-11-21T07:28:04;98956.56;;;18.88;44.44
10176;BME280;18221;38.704;0.152;2023-11-21T07:30:32;98945.22;;;18.93;44.14
10176;BME280;18221;38.704;0.152;2023-11-21T07:33:01;98950.59;;;18.93;44.24
10176;BME280;18221;38.704;0.152;2023-11-21T07:35:29;98946.50;;;18.97;43.74
10176;BME280;18221;38.704;0.152;2023-11-21T07:37:57;98951.13;;;19.03;43.45
10176;BME280;18221;38.704;0.152;2023-11-21T07:40:25;98958.00;;;19.12;43.35
10176;BME280;18221;38.704;0.152;2023-11-21T07:42:53;98951.72;;;19.26;43.14
10176;BME280;18221;38.704;0.152;2023-11-21T07:45:23;98953.38;;;19.27;42.90
10176;BME280;18221;38.704;0.152;2023-11-21T07:47:54;98954.78;;;19.44;42.75
10176;BME280;18221;38.704;0.152;2023-11-21T07:50:23;98946.25;;;19.41;42.35
10176;BME280;18221;38.704;0.152;2023-11-21T07:52:53;98945.69;;;19.52;42.10
10176;BME280;18221;38.704;0.152;2023-11-21T07:55:21;98948.25;;;19.60;41.78
10176;BME280;18221;38.704;0.152;2023-11-21T07:57:49;98942.88;;;19.66;41.57
10176;BME280;18221;38.704;0.152;2023-11-21T08:00:18;98951.41;;;19.70;41.46
10176;BME280;18221;38.704;0.152;2023-11-21T08:02:48;98949.53;;;19.70;41.11
10176;BME280;18221;38.704;0.152;2023-11-21T08:05:17;98949.09;;;19.67;41.35
10176;BME280;18221;38.704;0.152;2023-11-21T08:07:46;98954.84;;;19.57;41.41
10176;BME280;18221;38.704;0.152;2023-11-21T08:10:14;98952.00;;;19.65;41.17
10176;BME280;18221;38.704;0.152;2023-11-21T08:12:43;98961.00;;;19.45;41.28
10176;BME280;18221;38.704;0.152;2023-11-21T08:15:11;98954.25;;;19.34;41.37
10176;BME280;18221;38.704;0.152;2023-11-21T08:17:39;98961.81;;;19.45;40.88
10176;BME280;18221;38.704;0.152;2023-11-21T08:20:08;98954.88;;;19.36;40.68
10176;BME280;18221;38.704;0.152;2023-11-21T08:22:38;98962.66;;;19.25;40.84
10176;BME280;18221;38.704;0.152;2023-11-21T08:25:09;98957.88;;;19.20;40.78
10176;BME280;18221;38.704;0.152;2023-11-21T08:27:37;98964.97;;;19.28;40.79
10176;BME280;18221;38.704;0.152;2023-11-21T08:30:07;98963.28;;;19.27;40.86
10176;BME280;18221;38.704;0.152;2023-11-21T08:32:35;98964.50;;;19.45;40.37
10176;BME280;18221;38.704;0.152;2023-11-21T08:35:03;98958.03;;;19.40;40.28
10176;BME280;18221;38.704;0.152;2023-11-21T08:37:31;98968.00;;;19.39;39.24
10176;BME280;18221;38.704;0.152;2023-11-21T08:40:04;98954.66;;;19.31;38.20
10176;BME280;18221;38.704;0.152;2023-11-21T08:42:37;98962.53;;;19.33;37.44
10176;BME280;18221;38.704;0.152;2023-11-21T08:45:06;98969.03;;;19.17;36.84
10176;BME280;18221;38.704;0.152;2023-11-21T08:47:35;98974.03;;;19.20;36.14
10176;BME280;18221;38.704;0.152;2023-11-21T08:50:04;98970.97;;;19.02;35.84
10176;BME280;18221;38.704;0.152;2023-11-21T08:52:34;98964.03;;;19.14;35.95
10176;BME280;18221;38.704;0.152;2023-11-21T08:55:04;98965.47;;;19.10;35.52
10176;BME280;18221;38.704;0.152;2023-11-21T08:57:36;98974.69;;;19.01;35.25
10176;BME280;18221;38.704;0.152;2023-11-21T09:00:05;98970.91;;;18.95;34.90
10176;BME280;18221;38.704;0.152;2023-11-21T09:02:38;98973.19;;;18.92;34.56
10176;BME280;18221;38.704;0.152;2023-11-21T09:05:08;98965.28;;;18.90;33.54
10176;BME280;18221;38.704;0.152;2023-11-21T09:07:38;98974.75;;;19.07;33.32
10176;BME280;18221;38.704;0.152;2023-11-21T09:10:08;98971.22;;;19.07;32.79
10176;BME280;18221;38.704;0.152;2023-11-21T09:12:37;98968.44;;;19.22;32.15
10176;BME280;18221;38.704;0.152;2023-11-21T09:15:10;98972.25;;;19.06;31.70
10176;BME280;18221;38.704;0.152;2023-11-21T09:17:39;98969.41;;;19.14;31.06
10176;BME280;18221;38.704;0.152;2023-11-21T09:20:10;98966.06;;;19.05;31.68
10176;BME280;18221;38.704;0.152;2023-11-21T09:22:38;98956.50;;;19.03;31.57
10176;BME280;18221;38.704;0.152;2023-11-21T09:25:06;98950.56;;;18.86;30.20
10176;BME280;18221;38.704;0.152;2023-11-21T09:27:36;98956.66;;;18.95;30.19
10176;BME280;18221;38.704;0.152;2023-11-21T09:30:05;98952.28;;;18.94;30.03
10176;BME280;18221;38.704;0.152;2023-11-21T09:32:36;98957.72;;;19.00;29.77
10176;BME280;18221;38.704;0.152;2023-11-21T09:35:05;98953.38;;;19.27;29.13
10176;BME280;18221;38.704;0.152;2023-11-21T09:37:34;98960.84;;;19.04;29.08
10176;BME280;18221;38.704;0.152;2023-11-21T09:40:06;98963.41;;;19.12;29.09
10176;BME280;18221;38.704;0.152;2023-11-21T09:42:49;98955.97;;;19.14;28.41
10176;BME280;18221;38.704;0.152;2023-11-21T09:45:26;98966.31;;;19.38;28.59
10176;BME280;18221;38.704;0.152;2023-11-21T09:47:56;98963.34;;;19.33;28.41
10176;BME280;18221;38.704;0.152;2023-11-21T09:50:24;98964.72;;;19.44;28.67
10176;BME280;18221;38.704;0.152;2023-11-21T09:53:05;98977.56;;;19.48;29.07
10176;BME280;18221;38.704;0.152;2023-11-21T09:55:43;98971.34;;;19.48;28.52
10176;BME280;18221;38.704;0.152;2023-11-21T09:58:14;98966.50;;;19.64;28.40
10176;BME280;18221;38.704;0.152;2023-11-21T10:00:44;98971.88;;;19.64;28.35
10176;BME280;18221;38.704;0.152;2023-11-21T10:03:13;98975.28;;;19.80;28.29
10176;BME280;18221;38.704;0.152;2023-11-21T10:05:43;98973.44;;;19.87;28.11
10176;BME280;18221;38.704;0.152;2023-11-21T10:08:13;98973.28;;;19.95;28.26
10176;BME280;18221;38.704;0.152;2023-11-21T10:10:45;98969.56;;;19.96;28.28
10176;BME280;18221;38.704;0.152;2023-11-21T10:13:18;98962.03;;;19.85;28.99
10176;BME280;18221;38.704;0.152;2023-11-21T10:15:51;98952.66;;;20.15;29.07
10176;BME280;18221;38.704;0.152;2023-11-21T10:18:20;98943.81;;;20.34;28.70
10176;BME280;18221;38.704;0.152;2023-11-21T10:20:49;98945.69;;;20.40;28.81
10176;BME280;18221;38.704;0.152;2023-11-21T10:23:19;98933.56;;;20.10;29.22
10176;BME280;18221;38.704;0.152;2023-11-21T10:25:49;98939.00;;;20.23;29.58
10176;BME280;18221;38.704;0.152;2023-11-21T10:28:19;98936.53;;;20.35;29.45
10176;BME280;18221;38.704;0.152;2023-11-21T10:30:47;98931.56;;;20.25;29.95
10176;BME280;18221;38.704;0.152;2023-11-21T10:33:15;98935.47;;;20.22;30.60
10176;BME280;18221;38.704;0.152;2023-11-21T10:35:44;98927.72;;;20.06;31.26
10176;BME280;18221;38.704;0.152;2023-11-21T10:38:17;98921.63;;;20.39;31.08
10176;BME280;18221;38.704;0.152;2023-11-21T10:40:47;98922.41;;;20.26;31.65
10176;BME280;18221;38.704;0.152;2023-11-21T10:43:15;98908.47;;;20.16;32.58
10176;BME280;18221;38.704;0.152;2023-11-21T10:45:46;98902.66;;;20.19;32.77
10176;BME280;18221;38.704;0.152;2023-11-21T10:48:15;98893.69;;;20.05;33.90
10176;BME280;18221;38.704;0.152;2023-11-21T10:50:46;98906.59;;;20.10;33.68
10176;BME280;18221;38.704;0.152;2023-11-21T10:53:15;98908.25;;;20.11;32.84
10176;BME280;18221;38.704;0.152;2023-11-21T10:55:43;98905.81;;;20.29;32.41
10176;BME280;18221;38.704;0.152;2023-11-21T10:58:13;98923.69;;;20.30;32.93
10176;BME280;18221;38.704;0.152;2023-11-21T11:00:45;98915.78;;;20.28;33.03
10176;BME280;18221;38.704;0.152;2023-11-21T11:03:14;98904.97;;;20.22;33.56
10176;BME280;18221;38.704;0.152;2023-11-21T11:05:44;98913.53;;;20.45;33.11
10176;BME280;18221;38.704;0.152;2023-11-21T11:08:21;98889.72;;;20.62;32.80
10176;BME280;18221;38.704;0.152;2023-11-21T11:10:52;98906.50;;;20.51;32.88
10176;BME280;18221;38.704;0.152;2023-11-21T11:13:20;98919.97;;;20.44;32.34
10176;BME280;18221;38.704;0.152;2023-11-21T11:15:51;98909.16;;;20.31;31.47
10176;BME280;18221;38.704;0.152;2023-11-21T11:18:26;98913.44;;;20.19;30.69
10176;BME280;18221;38.704;0.152;2023-11-21T11:20:54;98891.75;;;20.40;30.89
10176;BME280;18221;38.704;0.152;2023-11-21T11:23:53;98891.78;;;20.53;30.48
10176;BME280;18221;38.704;0.152;2023-11-21T11:26:39;98884.69;;;20.33;29.61
10176;BME280;18221;38.704;0.152;2023-11-21T11:29:28;98886.75;;;20.37;29.49
10176;BME280;18221;38.704;0.152;2023-11-21T11:32:16;98897.34;;;20.32;29.88
10176;BME280;18221;38.704;0.152;2023-11-21T11:34:56;98887.81;;;20.49;29.33
10176;BME280;18221;38.704;0.152;2023-11-21T11:37:27;98885.75;;;20.58;26.89
10176;BME280;18221;38.704;0.152;2023-11-21T11:39:56;98885.38;;;20.67;24.82
10176;BME280;18221;38.704;0.152;2023-11-21T11:42:24;98880.56;;;20.56;25.10
10176;BME280;18221;38.704;0.152;2023-11-21T11:44:55;98876.44;;;20.67;23.71
10176;BME280;18221;38.704;0.152;2023-11-21T11:47:27;98864.81;;;20.79;23.62
10176;BME280;18221;38.704;0.152;2023-11-21T11:50:04;98862.91;;;21.00;23.93
10176;BME280;18221;38.704;0.152;2023-11-21T11:52:39;98860.03;;;21.08;23.68
10176;BME280;18221;38.704;0.152;2023-11-21T11:55:10;98862.09;;;21.19;23.87
10176;BME280;18221;38.704;0.152;2023-11-21T11:57:40;98854.19;;;20.98;23.88
10176;BME280;18221;38.704;0.152;2023-11-21T12:00:14;98844.03;;;21.19;23.92
10176;BME280;18221;38.704;0.152;2023-11-21T12:02:50;98823.88;;;21.15;24.20
10176;BME280;18221;38.704;0.152;2023-11-21T12:05:20;98827.56;;;21.34;24.53
10176;BME280;18221;38.704;0.152;2023-11-21T12:07:50;98818.31;;;21.61;24.88
10176;BME280;18221;38.704;0.152;2023-11-21T12:10:21;98825.91;;;21.77;24.30
10176;BME280;18221;38.704;0.152;2023-11-21T12:12:52;98830.50;;;21.77;24.19
10176;BME280;18221;38.704;0.152;2023-11-21T12:15:20;98830.75;;;21.69;24.66
10176;BME280;18221;38.704;0.152;2023-11-21T12:17:51;98825.81;;;22.03;24.17
10176;BME280;18221;38.704;0.152;2023-11-21T12:20:21;98818.69;;;22.16;23.98
10176;BME280;18221;38.704;0.152;2023-11-21T12:22:51;98831.44;;;22.02;24.38
10176;BME280;18221;38.704;0.152;2023-11-21T12:25:21;98823.34;;;22.27;24.63
10176;BME280;18221;38.704;0.152;2023-11-21T12:27:51;98826.16;;;22.13;25.00
10176;BME280;18221;38.704;0.152;2023-11-21T12:30:22;98822.66;;;22.13;24.59
10176;BME280;18221;38.704;0.152;2023-11-21T12:32:54;98826.91;;;22.27;24.63
10176;BME280;18221;38.704;0.152;2023-11-21T12:35:25;98820.38;;;22.66;23.92
10176;BME280;18221;38.704;0.152;2023-11-21T12:37:55;98827.66;;;22.90;23.92
10176;BME280;18221;38.704;0.152;2023-11-21T12:40:23;98828.06;;;22.94;22.89
10176;BME280;18221;38.704;0.152;2023-11-21T12:42:54;98834.25;;;22.45;23.09
10176;BME280;18221;38.704;0.152;2023-11-21T12:45:24;98817.06;;;22.64;24.07
10176;BME280;18221;38.704;0.152;2023-11-21T12:47:56;98809.69;;;22.46;23.37
10176;BME280;18221;38.704;0.152;2023-11-21T12:50:28;98805.28;;;22.77;23.70
10176;BME280;18221;38.704;0.152;2023-11-21T12:53:00;98809.84;;;22.83;23.67
10176;BME280;18221;38.704;0.152;2023-11-21T12:55:32;98803.53;;;22.89;23.78
10176;BME280;18221;38.704;0.152;2023-11-21T12:58:05;98807.31;;;23.06;23.60
10176;BME280;18221;38.704;0.152;2023-11-21T13:00:36;98797.31;;;23.24;23.78
10176;BME280;18221;38.704;0.152;2023-11-21T13:03:09;98801.84;;;23.12;23.60
10176;BME280;18221;38.704;0.152;2023-11-21T13:05:40;98785.09;;;23.15;23.49
10176;BME280;18221;38.704;0.152;2023-11-21T13:08:12;98784.06;;;23.16;23.17
10176;BME280;18221;38.704;0.152;2023-11-21T13:10:45;98780.22;;;23.06;23.02
10176;BME280;18221;38.704;0.152;2023-11-21T13:13:14;98765.69;;;23.00;22.92